Time;durP1;ratioP1;P1;durP2;ratioP2;P2;SDS_P1;SDS_P2;PMS_P1;PMS_P2;Temp;Humidity;BMP_temperature;BMP_pressure;BME280_temperature;BME280_humidity;BME280_pressure;Samples;Min_cycle;Max_cycle;Signal;HPM_P1;HPM_P2
2022/05/31 00:02:47;;;;;;;58.17;20.98;;;;;;;26.86;57.21;97411.41;4870891;29;20487;-66
2022/05/31 00:05:30;;;;;;;66.90;21.95;;;;;;;26.84;56.69;97410.78;4870140;29;20711;-66
2022/05/31 00:08:19;;;;;;;71.15;23.52;;;;;;;26.82;57.11;97410.13;4863730;29;20057;-66
2022/05/31 00:11:03;;;;;;;62.58;23.73;;;;;;;26.81;57.37;97416.44;4886522;29;20164;-67
2022/05/31 00:13:52;;;;;;;73.72;25.83;;;;;;;26.83;56.80;97418.88;4873153;29;20068;-66
2022/05/31 00:16:33;;;;;;;77.95;26.95;;;;;;;26.79;58.35;97420.25;4873111;29;20061;-67
2022/05/31 00:19:23;;;;;;;77.85;28.55;;;;;;;26.80;58.09;97422.72;4872706;29;20061;-66
2022/05/31 00:22:21;;;;;;;81.75;31.35;;;;;;;26.77;57.79;97438.09;4871165;29;20056;-66
2022/05/31 00:25:02;;;;;;;75.10;31.75;;;;;;;26.76;56.83;97434.63;4877280;29;20555;-66
2022/05/31 00:27:51;;;;;;;80.93;35.45;;;;;;;26.76;57.67;97439.09;4889863;29;20119;-65
2022/05/31 00:30:43;;;;;;;81.05;37.50;;;;;;;26.73;55.13;97439.47;4860676;29;20052;-65
2022/05/31 00:33:27;;;;;;;76.53;35.13;;;;;;;26.82;57.35;97451.63;4869799;29;20057;-66
2022/05/31 00:36:16;;;;;;;83.10;33.45;;;;;;;26.85;56.31;97446.78;4870363;29;20045;-67
2022/05/31 00:38:58;;;;;;;81.97;36.78;;;;;;;26.84;59.45;97454.88;4870779;29;20048;-65
2022/05/31 00:41:48;;;;;;;75.28;34.03;;;;;;;26.85;63.73;97452.06;4868107;29;20140;-65
2022/05/31 00:44:39;;;;;;;74.40;34.67;;;;;;;26.87;60.51;97460.66;4835551;29;20053;-66
2022/05/31 00:47:37;;;;;;;72.63;34.30;;;;;;;26.92;59.71;97466.25;4852028;29;20065;-64
2022/05/31 00:50:29;;;;;;;73.53;32.53;;;;;;;26.97;61.32;97461.25;4851384;29;20136;-64
2022/05/31 00:53:40;;;;;;;86.25;35.97;;;;;;;26.90;59.60;97475.34;4869702;29;20381;-64
2022/05/31 00:56:32;;;;;;;78.47;35.88;;;;;;;26.89;61.05;97463.94;4866524;29;20056;-66
2022/05/31 00:59:20;;;;;;;83.38;36.15;;;;;;;26.98;61.28;97469.97;4872080;29;20053;-65
2022/05/31 01:02:11;;;;;;;80.78;34.92;;;;;;;27.00;61.83;97468.81;4888986;29;20508;-64
2022/05/31 01:04:57;;;;;;;85.28;36.67;;;;;;;27.05;62.48;97457.72;4889025;29;20135;-64
2022/05/31 01:07:46;;;;;;;81.60;39.08;;;;;;;27.13;62.30;97451.53;4888252;29;20728;-65
2022/05/31 01:10:46;;;;;;;97.32;38.53;;;;;;;27.18;62.53;97459.72;4884744;29;20109;-65
2022/05/31 01:14:03;;;;;;;80.15;40.38;;;;;;;27.27;61.97;97456.00;4886958;29;20155;-66
2022/05/31 01:17:21;;;;;;;100.85;42.88;;;;;;;27.32;61.27;97466.84;4869816;29;20057;-66
2022/05/31 01:20:28;;;;;;;98.97;42.08;;;;;;;27.44;62.26;97473.34;4869873;29;20061;-66
2022/05/31 01:23:31;;;;;;;101.10;45.15;;;;;;;27.49;61.61;97481.56;4850610;29;20108;-66
2022/05/31 01:26:47;;;;;;;93.13;45.58;;;;;;;27.60;63.12;97475.84;4853577;29;20056;-66
2022/05/31 01:29:44;;;;;;;119.28;49.97;;;;;;;27.72;61.43;97482.31;4870392;29;20112;-65
2022/05/31 01:32:27;;;;;;;129.45;55.35;;;;;;;27.80;61.88;97492.81;4868793;29;20057;-65
2022/05/31 01:35:27;;;;;;;129.10;57.50;;;;;;;27.89;55.99;97496.19;4869993;29;20064;-66
2022/05/31 01:38:28;;;;;;;124.00;57.28;;;;;;;28.03;60.88;97497.16;4868605;29;20049;-67
2022/05/31 01:41:27;;;;;;;134.57;59.45;;;;;;;28.09;55.55;97496.44;4868795;29;20061;-66
2022/05/31 01:44:18;;;;;;;145.10;63.25;;;;;;;28.29;60.16;97494.88;4868788;29;20049;-66
2022/05/31 01:47:03;;;;;;;159.60;65.35;;;;;;;28.45;60.17;97513.19;4855110;29;20056;-66
2022/05/31 01:49:54;;;;;;;117.55;59.97;;;;;;;28.62;59.46;97516.44;4869649;29;20053;-66
2022/05/31 01:52:38;;;;;;;119.90;53.13;;;;;;;28.79;52.41;97532.97;4869237;29;20075;-65
2022/05/31 01:55:32;;;;;;;107.25;49.33;;;;;;;29.07;51.29;97525.03;4868207;29;20064;-66
2022/05/31 01:58:19;;;;;;;114.25;53.03;;;;;;;29.39;57.42;97529.81;4871085;29;20049;-65
2022/05/31 02:01:09;;;;;;;122.72;48.50;;;;;;;29.57;49.81;97524.84;4868519;29;20611;-66
2022/05/31 02:03:54;;;;;;;115.25;48.00;;;;;;;29.84;56.18;97533.81;4852388;29;20065;-65
2022/05/31 02:06:43;;;;;;;94.30;42.78;;;;;;;30.13;49.56;97527.44;4868551;29;20365;-67
2022/05/31 02:09:24;;;;;;;91.65;42.17;;;;;;;30.15;49.91;97536.03;4873260;29;20088;-65
2022/05/31 02:12:24;;;;;;;88.05;40.33;;;;;;;30.51;49.09;97529.66;4880063;29;20044;-66
2022/05/31 02:15:20;;;;;;;92.72;39.65;;;;;;;30.74;49.44;97530.09;4853526;29;20061;-66
2022/05/31 02:19:15;;;;;;;114.68;44.13;;;;;;;30.58;49.26;97536.63;4872452;29;20071;-68
2022/05/31 02:21:53;;;;;;;102.15;43.15;;;;;;;30.49;45.16;97535.13;4883712;29;20064;-67
2022/05/31 02:24:50;;;;;;;83.88;42.55;;;;;;;30.79;51.06;97533.81;4875439;29;20444;-66
2022/05/31 02:27:46;;;;;;;96.07;41.90;;;;;;;30.97;58.05;97540.41;4874592;29;20666;-66
2022/05/31 02:30:42;;;;;;;84.75;39.25;;;;;;;31.21;60.30;97536.34;4850051;29;20050;-67
2022/05/31 02:33:18;;;;;;;88.45;39.50;;;;;;;31.28;53.19;97553.16;4836065;29;20046;-66
2022/05/31 02:36:07;;;;;;;90.75;39.15;;;;;;;31.48;62.43;97548.63;4850467;29;20060;-66
2022/05/31 02:38:49;;;;;;;76.30;36.97;;;;;;;31.89;57.40;97561.69;4835108;29;20126;-66
2022/05/31 02:41:44;;;;;;;76.30;37.45;;;;;;;31.76;49.19;97557.22;4834257;29;20056;-66
2022/05/31 02:44:33;;;;;;;81.13;36.22;;;;;;;32.07;49.90;97563.72;4850089;29;20061;-66
2022/05/31 02:47:22;;;;;;;78.65;35.15;;;;;;;32.08;42.92;97566.19;4870852;29;20064;-66
2022/05/31 02:50:11;;;;;;;78.30;35.53;;;;;;;32.60;54.11;97565.16;4871696;29;20068;-65
2022/05/31 02:52:54;;;;;;;85.45;35.05;;;;;;;32.51;45.54;97570.94;4871655;29;20060;-67
2022/05/31 02:55:44;;;;;;;85.57;33.80;;;;;;;32.78;47.03;97571.69;4845609;29;20134;-66
2022/05/31 02:58:52;;;;;;;76.38;32.05;;;;;;;32.70;43.64;97583.41;4825982;29;20057;-66
2022/05/31 03:01:59;;;;;;;69.15;28.80;;;;;;;33.08;48.88;97572.72;4850407;29;20064;-66
2022/05/31 03:05:01;;;;;;;62.55;27.80;;;;;;;33.22;39.98;97578.81;4844318;29;20092;-65
2022/05/31 03:08:09;;;;;;;57.55;27.98;;;;;;;33.54;51.07;97571.56;4843802;29;20155;-67
2022/05/31 03:11:43;;;;;;;75.65;33.65;;;;;;;33.45;43.15;97579.03;4851107;29;20056;-67
2022/05/31 03:14:52;;;;;;;71.93;34.85;;;;;;;33.62;44.59;97579.28;4852814;29;20072;-66
2022/05/31 03:18:04;;;;;;;78.38;40.60;;;;;;;33.79;46.82;97570.53;4845282;29;20050;-65
2022/05/31 03:20:57;;;;;;;87.40;37.83;;;;;;;33.87;46.11;97584.66;4838683;29;20042;-66
2022/05/31 03:23:58;;;;;;;90.32;35.45;;;;;;;33.97;46.27;97572.41;4841115;29;20126;-66
2022/05/31 03:26:56;;;;;;;79.30;35.65;;;;;;;33.23;38.55;97572.44;4853875;29;20045;-66
2022/05/31 03:29:56;;;;;;;76.18;33.85;;;;;;;33.85;43.92;97573.34;4823656;29;20118;-67
2022/05/31 03:32:35;;;;;;;74.57;31.80;;;;;;;33.86;47.42;97569.63;4826727;29;20068;-66
2022/05/31 03:35:25;;;;;;;100.00;34.70;;;;;;;33.93;38.19;97573.06;4817409;29;20350;-66
2022/05/31 03:38:14;;;;;;;79.95;32.55;;;;;;;33.85;38.01;97571.50;4835886;29;20057;-66
2022/05/31 03:41:04;;;;;;;81.97;31.33;;;;;;;34.22;46.30;97563.50;4821934;29;20057;-66
2022/05/31 03:43:57;;;;;;;82.78;31.67;;;;;;;34.44;43.80;97562.84;4839578;29;20054;-67
2022/05/31 03:46:58;;;;;;;77.97;32.70;;;;;;;34.93;41.72;97566.31;4827965;29;20219;-66
2022/05/31 03:50:14;;;;;;;74.10;31.83;;;;;;;34.80;36.50;97564.63;4846570;29;20062;-66
2022/05/31 03:53:03;;;;;;;84.63;30.25;;;;;;;35.19;44.47;97557.91;4839552;29;20054;-66
2022/05/31 03:55:48;;;;;;;52.10;26.08;;;;;;;35.52;39.67;97568.09;4849226;29;20114;-66
2022/05/31 03:58:41;;;;;;;61.78;21.95;;;;;;;35.73;37.74;97558.69;4844497;29;20054;-66
2022/05/31 04:01:32;;;;;;;55.50;20.67;;;;;;;35.76;36.03;97560.88;4838044;29;20042;-66
2022/05/31 04:04:14;;;;;;;61.20;22.35;;;;;;;35.47;35.97;97553.75;4838579;29;20134;-67
2022/05/31 04:07:04;;;;;;;44.55;15.65;;;;;;;35.69;35.24;97557.47;4838549;29;20161;-66
2022/05/31 04:09:53;;;;;;;46.53;15.68;;;;;;;35.27;36.12;97557.59;4839157;29;20065;-64
2022/05/31 04:12:39;;;;;;;44.80;16.38;;;;;;;35.99;37.32;97555.53;4823921;29;20042;-67
2022/05/31 04:15:50;;;;;;;42.35;14.75;;;;;;;35.99;41.93;97555.53;4825376;29;20414;-67
2022/05/31 04:18:34;;;;;;;49.90;15.95;;;;;;;36.04;43.48;97558.31;4837873;29;20118;-67
2022/05/31 04:21:24;;;;;;;39.78;15.82;;;;;;;36.33;40.97;97561.06;4815565;29;20054;-66
2022/05/31 04:24:16;;;;;;;45.88;15.77;;;;;;;36.31;41.08;97561.31;4812542;29;20916;-67
2022/05/31 04:27:30;;;;;;;40.63;15.88;;;;;;;36.69;43.88;97560.75;4820092;29;20065;-67
2022/05/31 04:30:45;;;;;;;48.03;16.92;;;;;;;37.05;40.34;97561.38;4861516;29;20049;-66
2022/05/31 04:33:59;;;;;;;55.97;17.05;;;;;;;36.28;34.10;97569.03;4849284;29;20590;-67
2022/05/31 04:36:56;;;;;;;48.13;18.73;;;;;;;36.69;39.78;97560.75;4836146;29;20056;-67
2022/05/31 04:39:49;;;;;;;45.30;17.35;;;;;;;37.12;39.99;97562.03;4858156;29;20059;-65
2022/05/31 04:43:01;;;;;;;52.47;16.10;;;;;;;37.11;34.72;97557.75;4870770;29;20053;-67
2022/05/31 04:46:28;;;;;;;66.10;25.40;;;;;;;36.44;32.61;97562.91;4871005;29;20057;-65
2022/05/31 04:49:34;;;;;;;60.90;23.80;;;;;;;37.09;38.73;97560.66;4847249;29;20484;-65
2022/05/31 04:52:24;;;;;;;58.78;18.35;;;;;;;37.00;35.07;97561.31;4841172;29;20056;-65
2022/05/31 04:55:09;;;;;;;46.53;17.83;;;;;;;36.77;38.17;97559.56;4842745;29;20073;-66
2022/05/31 04:57:58;;;;;;;48.08;16.42;;;;;;;36.70;32.86;97570.44;4861324;29;20152;-66
2022/05/31 05:00:40;;;;;;;57.13;16.37;;;;;;;37.13;39.99;97561.00;4862921;29;20470;-65
2022/05/31 05:03:31;;;;;;;50.28;15.10;;;;;;;37.14;41.91;97563.47;4844914;29;20069;-64
2022/05/31 05:06:15;;;;;;;51.20;15.07;;;;;;;37.20;37.18;97561.66;4847521;29;20648;-65
2022/05/31 05:09:06;;;;;;;46.35;12.82;;;;;;;37.40;36.90;97570.06;4835297;29;20049;-65
2022/05/31 05:12:15;;;;;;;39.60;15.05;;;;;;;36.97;31.74;97559.09;4846285;29;20144;-64
2022/05/31 05:15:14;;;;;;;44.65;14.70;;;;;;;37.29;32.83;97568.28;4862031;29;20064;-64
2022/05/31 05:17:56;;;;;;;50.80;16.50;;;;;;;37.53;33.41;97567.03;4843859;29;20510;-64
2022/05/31 05:20:48;;;;;;;55.13;18.90;;;;;;;37.67;33.93;97556.00;4847226;29;20441;-64
2022/05/31 05:23:31;;;;;;;51.22;17.10;;;;;;;37.91;36.58;97562.81;4847062;29;20057;-64
2022/05/31 05:26:25;;;;;;;54.95;19.83;;;;;;;37.74;32.68;97562.03;4825247;29;20141;-65
2022/05/31 05:32:46;;;;;;;42.83;16.33;;;;;;;38.13;31.40;97566.34;4858929;29;20054;-65
2022/05/31 05:35:41;;;;;;;57.15;15.63;;;;;;;38.20;32.99;97561.59;4869765;29;20198;-64
2022/05/31 05:38:30;;;;;;;48.67;15.60;;;;;;;38.28;31.44;97560.34;4842520;29;20060;-65
2022/05/31 05:41:42;;;;;;;52.85;17.67;;;;;;;38.12;29.32;97563.91;4850436;29;20065;-64
2022/05/31 05:44:48;;;;;;;51.20;12.20;;;;;;;38.02;31.34;97547.59;4852825;29;20050;-63
2022/05/31 05:47:30;;;;;;;37.97;11.82;;;;;;;38.24;34.34;97556.50;4854834;29;20049;-65
2022/05/31 05:50:19;;;;;;;39.75;15.73;;;;;;;38.01;35.83;97552.16;4848096;29;20049;-65
2022/05/31 05:53:14;;;;;;;49.63;16.40;;;;;;;37.74;34.76;97554.75;4843008;29;20046;-66
2022/05/31 05:56:23;;;;;;;41.42;16.90;;;;;;;37.76;33.42;97546.44;4855946;29;20072;-66
2022/05/31 05:59:23;;;;;;;44.58;16.63;;;;;;;37.52;27.77;97551.16;4872331;29;20136;-66
2022/05/31 06:02:33;;;;;;;42.38;14.35;;;;;;;37.62;34.30;97547.84;4846300;29;20053;-65
2022/05/31 06:05:46;;;;;;;42.35;16.65;;;;;;;37.81;33.57;97535.75;4862551;29;20092;-65
2022/05/31 06:08:31;;;;;;;42.15;17.13;;;;;;;37.60;26.92;97549.97;4844902;29;20061;-66
2022/05/31 06:11:25;;;;;;;52.30;18.33;;;;;;;37.67;28.93;97546.06;4850841;29;20078;-66
2022/05/31 06:14:10;;;;;;;50.83;18.13;;;;;;;37.82;30.19;97540.06;4844979;29;20136;-65
2022/05/31 06:17:04;;;;;;;51.47;17.75;;;;;;;37.87;27.78;97542.81;4870265;29;20054;-65
2022/05/31 06:20:00;;;;;;;43.88;18.30;;;;;;;37.97;28.67;97540.28;4855913;29;20048;-66
2022/05/31 06:22:45;;;;;;;49.33;19.00;;;;;;;38.10;30.17;97539.13;4837794;29;20709;-66
2022/05/31 06:25:35;;;;;;;66.10;18.88;;;;;;;38.08;34.71;97531.28;4836775;29;20057;-66
2022/05/31 06:28:24;;;;;;;43.40;18.67;;;;;;;38.13;34.56;97536.75;4836887;29;20110;-66
2022/05/31 06:31:06;;;;;;;52.28;21.77;;;;;;;37.98;31.57;97527.66;4841363;29;20758;-66
2022/05/31 06:34:02;;;;;;;51.40;21.95;;;;;;;37.95;34.06;97526.25;4853638;29;20057;-67
2022/05/31 06:37:18;;;;;;;51.25;19.77;;;;;;;37.96;32.70;97511.75;4828576;29;20142;-67
2022/05/31 06:39:54;;;;;;;56.53;18.67;;;;;;;38.02;32.44;97509.94;4836854;29;20133;-66
2022/05/31 06:43:15;;;;;;;57.50;16.85;;;;;;;38.17;33.39;97510.13;4820852;29;21295;-67
2022/05/31 06:46:23;;;;;;;39.67;14.20;;;;;;;38.13;32.44;97509.84;4831309;29;20493;-67
2022/05/31 06:49:48;;;;;;;38.08;12.05;;;;;;;38.06;29.37;97501.16;4844292;29;20049;-66
2022/05/31 06:59:41;;;;;;;38.95;10.88;;;;;;;37.98;28.27;97498.88;4822662;29;20065;-68
2022/05/31 07:02:30;;;;;;;53.65;11.70;;;;;;;38.18;29.84;97490.25;4836181;29;20062;-67
2022/05/31 07:05:13;;;;;;;36.30;10.02;;;;;;;38.06;28.81;97495.78;4819551;29;20051;-67
2022/05/31 07:08:02;;;;;;;33.85;10.57;;;;;;;37.81;29.72;97487.34;4820413;29;20077;-68
2022/05/31 07:11:02;;;;;;;35.25;10.02;;;;;;;38.02;30.17;97488.41;4837795;29;20053;-68
2022/05/31 07:14:17;;;;;;;47.30;9.88;;;;;;;38.10;29.01;97485.31;4835170;29;20057;-67
2022/05/31 07:17:31;;;;;;;38.80;9.98;;;;;;;38.08;30.25;97480.16;4834941;29;20477;-68
2022/05/31 07:20:21;;;;;;;40.53;10.30;;;;;;;38.00;33.69;97483.25;4831633;29;20053;-67
2022/05/31 07:23:03;;;;;;;;;;;;;;;37.86;29.82;97484.72;4834608;29;20050;-67
2022/05/31 07:25:59;;;;;;;34.78;10.00;;;;;;;37.95;35.78;97485.09;4828503;29;19933;-68
2022/05/31 07:29:01;;;;;;;40.90;11.63;;;;;;;37.96;32.67;97486.72;4826166;29;20143;-68
2022/05/31 07:31:57;;;;;;;33.15;9.85;;;;;;;37.87;29.99;97489.03;4833750;29;20386;-68
2022/05/31 07:34:59;;;;;;;35.08;10.30;;;;;;;37.98;33.79;97473.84;4838485;29;20061;-68
2022/05/31 07:37:49;;;;;;;46.05;11.35;;;;;;;37.86;29.21;97485.53;4853942;29;20125;-68
2022/05/31 07:40:36;;;;;;;46.60;11.50;;;;;;;37.88;28.76;97486.09;4850612;29;20169;-68
2022/05/31 07:43:26;;;;;;;37.58;11.27;;;;;;;38.00;29.16;97480.56;4853723;29;20053;-68
2022/05/31 07:46:13;;;;;;;32.55;10.82;;;;;;;38.14;31.50;97471.13;4847122;29;20481;-67
2022/05/31 07:49:05;;;;;;;35.55;9.98;;;;;;;38.13;31.49;97474.06;4847649;29;20085;-68
2022/05/31 07:51:54;;;;;;;39.45;10.52;;;;;;;38.14;33.39;97459.53;4853869;29;20170;-69
2022/05/31 07:55:21;;;;;;;39.10;10.23;;;;;;;38.15;28.17;97467.34;4845649;29;20098;-68
2022/05/31 07:58:32;;;;;;;32.58;9.77;;;;;;;38.07;26.79;97456.22;4850431;29;20486;-69
2022/05/31 08:01:40;;;;;;;38.08;10.73;;;;;;;38.04;31.39;97449.44;4872481;29;20120;-69
2022/05/31 08:04:33;;;;;;;26.75;9.50;;;;;;;38.05;33.44;97443.03;4854490;29;20055;-68
2022/05/31 08:07:22;;;;;;;35.33;11.07;;;;;;;37.99;30.99;97449.38;4872533;29;20049;-68
2022/05/31 08:10:05;;;;;;;33.63;9.38;;;;;;;37.95;32.15;97439.34;4871806;29;20052;-69
2022/05/31 08:12:54;;;;;;;48.00;13.65;;;;;;;37.90;31.08;97440.94;4873222;29;20065;-69
2022/05/31 08:15:36;;;;;;;40.80;9.75;;;;;;;37.83;29.78;97436.81;4860280;29;20049;-68
2022/05/31 08:18:25;;;;;;;34.17;10.15;;;;;;;37.72;27.68;97421.59;4852383;29;20050;-69
2022/05/31 08:21:27;;;;;;;28.92;9.55;;;;;;;37.75;27.60;97430.00;4873295;29;20056;-68
2022/05/31 08:24:07;;;;;;;35.17;10.20;;;;;;;37.61;28.12;97415.28;4872917;29;20105;-67
2022/05/31 08:27:15;;;;;;;35.85;9.13;;;;;;;37.72;27.04;97421.59;4855539;29;20351;-68
2022/05/31 08:29:57;;;;;;;34.55;9.80;;;;;;;37.70;26.96;97410.28;4887079;29;20059;-67
2022/05/31 08:32:46;;;;;;;36.38;10.15;;;;;;;37.66;29.40;97403.78;4891757;29;20740;-69
2022/05/31 08:35:28;;;;;;;41.03;9.30;;;;;;;37.51;26.42;97413.25;4887736;29;20044;-70
2022/05/31 08:38:43;;;;;;;43.40;12.07;;;;;;;37.49;26.86;97404.63;4890605;29;20041;-68
2022/05/31 08:41:39;;;;;;;42.00;8.90;;;;;;;37.60;29.82;97391.34;4891647;29;20445;-68
2022/05/31 08:44:29;;;;;;;39.85;12.02;;;;;;;37.63;29.08;97388.16;4887365;29;20051;-68
2022/05/31 08:47:22;;;;;;;33.28;9.38;;;;;;;37.66;29.42;97383.09;4863389;29;20049;-67
2022/05/31 08:53:46;;;;;;;34.78;9.40;;;;;;;37.51;27.09;97380.19;4864181;29;20059;-68
2022/05/31 08:59:50;;;;;;;34.53;8.48;;;;;;;37.55;28.30;97368.69;4853202;29;20059;-68
2022/05/31 09:02:53;;;;;;;27.17;7.30;;;;;;;37.41;29.01;97366.63;4871857;29;20140;-67
2022/05/31 09:05:43;;;;;;;31.73;7.28;;;;;;;37.32;31.50;97355.47;4856618;29;20060;-68
2022/05/31 09:08:45;;;;;;;30.42;8.07;;;;;;;37.26;28.31;97361.03;4871385;29;20109;-68
2022/05/31 09:11:42;;;;;;;30.52;7.82;;;;;;;37.30;29.15;97357.59;4865397;29;20053;-67
2022/05/31 09:14:37;;;;;;;34.58;8.13;;;;;;;37.07;29.36;97352.41;4865304;29;20053;-68
2022/05/31 09:17:52;;;;;;;26.08;7.78;;;;;;;37.01;27.40;97350.72;4862481;29;20060;-68
2022/05/31 09:21:08;;;;;;;25.25;6.05;;;;;;;36.96;28.81;97339.91;4859343;29;20084;-67
2022/05/31 09:23:58;;;;;;;23.77;6.20;;;;;;;36.83;29.03;97340.25;4862735;29;20049;-68
2022/05/31 09:26:57;;;;;;;22.55;7.40;;;;;;;36.86;28.44;97340.59;4862375;29;20049;-68
2022/05/31 09:30:09;;;;;;;22.95;6.57;;;;;;;36.88;26.68;97332.28;4866869;29;20049;-68
2022/05/31 09:33:04;;;;;;;26.42;7.07;;;;;;;36.74;29.93;97327.25;4861731;29;20101;-67
2022/05/31 09:36:17;;;;;;;35.75;6.60;;;;;;;37.17;25.94;97323.03;4871145;29;20075;-67
2022/05/31 09:39:30;;;;;;;27.60;7.82;;;;;;;37.00;27.05;97311.50;4841145;29;20060;-67
2022/05/31 09:42:29;;;;;;;32.60;7.38;;;;;;;36.91;26.93;97311.09;4851158;29;20053;-66
2022/05/31 09:45:20;;;;;;;32.42;7.22;;;;;;;36.73;29.46;97309.50;4845584;29;20117;-67
2022/05/31 09:48:09;;;;;;;22.60;6.45;;;;;;;36.65;29.30;97299.16;4846862;29;20466;-68
2022/05/31 09:51:25;;;;;;;28.83;7.72;;;;;;;36.59;30.45;97294.75;4855714;29;20109;-67
2022/05/31 09:57:34;;;;;;;19.98;6.55;;;;;;;36.41;31.14;97284.28;4849686;29;20518;-69
2022/05/31 10:01:03;;;;;;;26.30;7.78;;;;;;;36.36;29.11;97276.16;4852258;29;20541;-68
2022/05/31 10:04:13;;;;;;;28.73;7.75;;;;;;;36.49;26.16;97275.81;4850210;29;20865;-68
2022/05/31 10:07:15;;;;;;;32.67;8.93;;;;;;;36.70;27.87;97263.56;4841613;29;20506;-68
2022/05/31 10:10:01;;;;;;;29.27;7.95;;;;;;;36.67;27.21;97259.47;4841732;29;20566;-68
2022/05/31 10:12:55;;;;;;;29.35;8.27;;;;;;;36.72;30.02;97256.03;4838936;29;20057;-69
2022/05/31 10:15:49;;;;;;;26.90;7.97;;;;;;;36.74;29.09;97249.38;4840004;29;20101;-67
2022/05/31 10:18:53;;;;;;;25.48;8.00;;;;;;;36.70;28.76;97248.25;4841242;29;20124;-68
2022/05/31 10:21:44;;;;;;;31.25;8.38;;;;;;;36.62;29.05;97242.47;4843696;29;20442;-67
2022/05/31 10:24:56;;;;;;;26.33;8.00;;;;;;;36.61;28.54;97243.53;4850369;29;20358;-66
2022/05/31 10:28:27;;;;;;;25.83;7.40;;;;;;;36.67;29.93;97232.63;4838749;29;20764;-66
2022/05/31 10:31:41;;;;;;;27.77;8.20;;;;;;;36.55;31.24;97229.22;4850591;29;20049;-68
2022/05/31 10:34:44;;;;;;;40.15;8.68;;;;;;;36.60;28.19;97223.91;4864594;29;20117;-67
2022/05/31 10:37:40;;;;;;;29.20;7.90;;;;;;;36.52;30.18;97224.34;4513968;29;10000735;-66
2022/05/31 10:41:02;;;;;;;38.33;9.55;;;;;;;36.60;28.41;97220.41;4827292;29;20068;-71
2022/05/31 10:43:46;;;;;;;27.42;7.95;;;;;;;36.54;32.23;97214.19;4828751;29;20084;-67
2022/05/31 10:46:37;;;;;;;32.25;8.45;;;;;;;36.51;31.23;97216.53;4818826;29;20066;-67
2022/05/31 10:49:25;;;;;;;31.20;8.82;;;;;;;36.48;29.92;97206.31;4841515;29;20042;-69
2022/05/31 10:52:32;;;;;;;35.92;8.68;;;;;;;36.46;31.01;97206.56;4819657;29;20475;-69
2022/05/31 10:55:54;;;;;;;35.00;9.95;;;;;;;36.38;30.35;97210.47;4828594;29;20054;-70
2022/05/31 10:58:58;;;;;;;40.97;11.18;;;;;;;36.35;32.81;97204.78;4842681;29;20111;-70
2022/05/31 11:01:53;;;;;;;29.63;10.13;;;;;;;36.43;28.53;97205.16;4801731;29;20728;-70
2022/05/31 11:05:01;;;;;;;34.95;10.65;;;;;;;36.84;26.46;97208.44;4817616;29;20133;-69
2022/05/31 11:11:58;;;;;;;32.47;10.23;;;;;;;36.24;33.04;97184.22;4811741;29;20051;-68
2022/05/31 11:14:53;;;;;;;33.25;9.80;;;;;;;36.17;32.79;97183.53;4820443;29;20058;-69
2022/05/31 11:17:54;;;;;;;28.17;9.55;;;;;;;35.99;30.94;97182.75;4805389;29;20930;-69
2022/05/31 11:20:57;;;;;;;37.28;9.88;;;;;;;35.91;32.89;97177.00;4809974;29;20083;-69
2022/05/31 11:23:49;;;;;;;35.05;9.93;;;;;;;35.97;31.77;97184.88;4817847;29;20086;-69
2022/05/31 11:26:55;;;;;;;25.60;9.15;;;;;;;35.80;33.86;97169.81;4803869;29;20516;-69
2022/05/31 11:30:23;;;;;;;32.22;9.55;;;;;;;35.71;31.14;97174.78;4805076;29;20065;-69
2022/05/31 11:33:12;;;;;;;43.95;10.43;;;;;;;35.58;31.48;97177.75;4813564;29;20038;-68
2022/05/31 11:36:07;;;;;;;42.70;9.25;;;;;;;35.53;31.27;97170.41;4831143;29;20065;-68
2022/05/31 11:39:05;;;;;;;29.90;9.15;;;;;;;35.54;32.63;97174.72;4828738;29;20058;-68
2022/05/31 11:42:37;;;;;;;31.20;9.50;;;;;;;35.54;31.77;97172.03;4850053;29;20455;-69
2022/05/31 11:45:44;;;;;;;29.42;8.43;;;;;;;35.44;34.87;97160.34;4836585;29;20148;-69
2022/05/31 11:48:49;;;;;;;37.88;9.52;;;;;;;35.39;32.04;97157.56;4820345;29;20425;-69
2022/05/31 11:51:34;;;;;;;29.48;7.85;;;;;;;35.37;33.73;97159.66;4847409;29;20073;-69
2022/05/31 11:55:25;;;;;;;24.85;8.60;;;;;;;35.27;33.75;97155.78;4833248;29;20141;-68
2022/05/31 11:58:04;;;;;;;39.13;8.85;;;;;;;35.29;32.56;97160.88;4834942;29;20064;-69
2022/05/31 12:01:12;;;;;;;24.17;7.85;;;;;;;35.27;31.04;97161.13;4835966;29;20058;-69
2022/05/31 12:04:19;;;;;;;21.92;8.10;;;;;;;35.63;26.97;97159.88;4833409;29;20053;-70
2022/05/31 12:07:16;;;;;;;28.75;7.95;;;;;;;35.51;27.27;97161.81;4848156;29;20054;-69
2022/05/31 12:10:25;;;;;;;22.40;7.32;;;;;;;35.38;30.99;97158.63;4835845;29;20045;-69
2022/05/31 12:13:17;;;;;;;34.10;7.93;;;;;;;35.26;31.67;97164.88;4836517;29;20086;-69
2022/05/31 12:16:00;;;;;;;24.23;6.90;;;;;;;35.17;32.72;97155.56;4844189;29;20045;-68
2022/05/31 12:18:57;;;;;;;31.30;7.63;;;;;;;35.09;30.64;97166.66;4844467;29;20064;-68
2022/05/31 12:21:49;;;;;;;30.48;8.45;;;;;;;35.05;29.27;97162.81;4836221;29;20050;-68
2022/05/31 12:25:10;;;;;;;29.48;8.48;;;;;;;34.98;33.32;97162.13;4836453;29;20531;-69
2022/05/31 12:28:27;;;;;;;34.35;7.55;;;;;;;34.95;31.14;97165.31;4821941;29;20062;-70
2022/05/31 12:31:25;;;;;;;29.33;6.28;;;;;;;34.91;29.59;97170.31;4835773;29;20121;-70
2022/05/31 12:34:19;;;;;;;34.47;6.32;;;;;;;34.81;31.54;97171.97;4821556;29;20046;-69
2022/05/31 12:37:13;;;;;;;19.73;7.10;;;;;;;34.68;32.14;97167.66;4829597;29;20643;-69
2022/05/31 12:40:42;;;;;;;33.63;8.00;;;;;;;34.56;33.74;97173.03;4837950;29;20054;-69
2022/05/31 12:43:45;;;;;;;25.13;7.57;;;;;;;34.47;32.15;97174.47;4836905;29;20054;-69
2022/05/31 12:46:46;;;;;;;24.75;7.70;;;;;;;34.38;35.54;97175.88;4835785;29;20155;-70
2022/05/31 12:49:53;;;;;;;26.67;8.32;;;;;;;34.29;34.86;97174.59;4839058;29;20061;-69
2022/05/31 12:55:23;;;;;;;24.65;7.68;;;;;;;34.12;31.76;97178.97;4832809;29;20475;-69
2022/05/31 12:58:35;;;;;;;29.40;8.10;;;;;;;34.06;34.83;97179.91;4834697;29;20792;-69
2022/05/31 13:01:24;;;;;;;24.55;7.15;;;;;;;34.01;33.78;97180.59;4816735;29;20054;-70
2022/05/31 13:04:14;;;;;;;31.30;8.48;;;;;;;34.00;33.45;97187.00;4823899;29;20060;-68
2022/05/31 13:07:10;;;;;;;34.70;7.78;;;;;;;33.96;33.72;97185.00;4824417;29;20083;-69
2022/05/31 13:09:54;;;;;;;24.88;7.88;;;;;;;33.89;34.59;97187.78;4816644;29;20058;-69
2022/05/31 13:22:00;;;;;;;31.02;7.95;;;;;;;33.65;33.93;97200.28;4831377;29;20062;-69
2022/05/31 13:25:01;;;;;;;25.00;7.93;;;;;;;33.58;36.57;97198.75;4824128;29;20115;-70
2022/05/31 13:27:57;;;;;;;30.27;7.90;;;;;;;33.49;34.34;97203.59;4825350;29;20042;-70
2022/05/31 13:30:43;;;;;;;35.00;10.25;;;;;;;33.44;34.97;97211.47;4831199;29;20054;-70
2022/05/31 13:33:31;;;;;;;45.42;11.40;;;;;;;33.46;34.04;97216.56;4834575;29;20049;-70
2022/05/31 13:36:41;;;;;;;33.58;8.90;;;;;;;33.44;35.28;97222.16;4833247;29;20046;-70
2022/05/31 13:39:31;;;;;;;36.15;9.85;;;;;;;33.49;33.86;97222.28;4839242;29;20049;-70
2022/05/31 13:42:42;;;;;;;28.55;7.78;;;;;;;33.59;35.54;97219.88;4832346;29;20377;-68
2022/05/31 13:45:38;;;;;;;28.15;8.25;;;;;;;33.54;38.06;97225.06;4849981;29;20053;-70
2022/05/31 13:48:22;;;;;;;26.38;7.38;;;;;;;33.50;35.76;97228.44;4839247;29;20057;-73
2022/05/31 13:51:23;;;;;;;29.15;8.23;;;;;;;33.36;36.94;97223.28;4850445;29;20065;-71
2022/05/31 13:54:21;;;;;;;29.10;8.23;;;;;;;33.25;38.19;97231.25;4841490;29;20148;-68
2022/05/31 13:57:04;;;;;;;34.97;8.98;;;;;;;33.16;38.49;97238.72;4835249;29;20090;-69
2022/05/31 13:59:57;;;;;;;27.58;7.93;;;;;;;33.09;38.72;97234.50;4850058;29;20053;-70
2022/05/31 14:02:50;;;;;;;41.95;9.32;;;;;;;33.09;36.66;97247.84;4852041;29;20049;-70
2022/05/31 14:05:46;;;;;;;44.35;9.15;;;;;;;33.09;36.93;97248.66;4859012;29;20076;-69
2022/05/31 14:08:54;;;;;;;43.10;9.63;;;;;;;33.20;35.97;97244.44;4863976;29;20049;-69
2022/05/31 14:11:58;;;;;;;54.05;10.10;;;;;;;33.14;36.03;97243.44;4855637;29;20124;-64
2022/05/31 14:14:44;;;;;;;33.70;9.52;;;;;;;33.15;36.25;97249.63;4852542;29;20061;-66